This is the latest recevied weather packets stored in our database for station/object IONIA-WX. If no packets are shown the sender has not sent any weather packets the latest 10 day(s).
| Time | Temp. | Humidity | Pressure | Rain* | Wind** | Luminosity | Snow |
|---|---|---|---|---|---|---|---|
| 1788615019 | 19.44° C | 89% | 984.7 hPa | 0 mm | - | - | - |
| 1788614118 | 20° C | 89% | 984.8 hPa | 0 mm | - | - | - |
| 1788613220 | 19.44° C | 89% | 984.8 hPa | 0 mm | - | - | - |
| 1788612320 | 19.44° C | 86% | 984.3 hPa | 0 mm | - | - | - |
| 1788611421 | 19.44° C | 86% | 984.3 hPa | 0 mm | - | - | - |
| 1788610519 | 19.44° C | 86% | 984.3 hPa | 0 mm | - | - | - |
| 1788609624 | 19.44° C | 86% | 984.3 hPa | 0 mm | - | - | - |
| 1788608719 | 19.44° C | 90% | 983.6 hPa | 0 mm | - | - | - |
| 1788607821 | 19.44° C | 86% | 984.2 hPa | 0 mm | - | - | - |
| 1788606919 | 20° C | 86% | 984.2 hPa | 0 mm | - | - | - |
| 1788606021 | 20° C | 86% | 984.2 hPa | 0 mm | - | - | - |
| 1788605121 | 20° C | 87% | 983.6 hPa | 0 mm | - | - | - |
| 1788604221 | 20.56° C | 82% | 984.8 hPa | 0 mm | - | - | - |
| 1788603321 | 20° C | 82% | 984.8 hPa | 0 mm | - | - | - |
| 1788602423 | 20.56° C | 82% | 984.8 hPa | 0 mm | - | - | - |
| 1788601521 | 20.56° C | 89% | 983.5 hPa | 0 mm | - | - | - |
| 1788600617 | 21.11° C | 85% | 984.5 hPa | 0 mm | - | - | - |
| 1788599721 | 20.56° C | 85% | 984.4 hPa | 0 mm | - | - | - |
| 1788598821 | 21.11° C | 85% | 984.4 hPa | 0 mm | - | - | - |
| 1788597920 | 21.67° C | 95% | 983.8 hPa | 0 mm | - | - | - |
| 1788597019 | 21.11° C | 87% | 984.5 hPa | 0 mm | - | - | - |
| 1788596120 | 21.11° C | 87% | 984.5 hPa | 0 mm | - | - | - |
| 1788595218 | 21.11° C | 93% | 984.4 hPa | 0 mm | - | - | - |
| 1788594318 | 21.11° C | 92% | 984.6 hPa | 0 mm | - | - | - |
| 1788593420 | 21.11° C | 92% | 984.6 hPa | 0 mm | - | - | - |
* Rain latest hour (hover to see other rain measurements)
** Current wind speed in m/s (hover to see current wind gust speed)